CSW86 LDSP-ENAL
Flight info
| Callsign | CSW86 |
|---|---|
| Flight time | 2h 47m |
| Altitude | 30000 |
| Route | SIRM1V SIRMI M725 ZAG DIVAL LANUX HDO M725 GERGA T239 PEROM NOVPO L997 OBITI OBIT2R |
| Aircraft | B747/J-ICAO/L |
Departure
| Time | 2026-04-28 16:34 |
|---|---|
| Airport | Split Saint Jerome Airport (LDSP) |
Arrival
| Time | 2026-04-28 19:22 |
|---|---|
| Airport | Ålesund Airport (ENAL) |
| Time | Latitude | Longitude | Altitude | Speed | Heading |
|---|---|---|---|---|---|
| 2026-04-28 15:33 | 43.53834 | 16.30032 | 74 ft | 0 kts | 115° |
| 2026-04-28 16:00 | 43.53831 | 16.30040 | 63 ft | 1 kts | 122° |
| 2026-04-28 16:01 | 43.53827 | 16.30043 | 63 ft | 1 kts | 138° |
| 2026-04-28 16:01 | 43.53820 | 16.30045 | 63 ft | 1 kts | 162° |
| 2026-04-28 16:01 | 43.53811 | 16.30041 | 70 ft | 1 kts | 195° |
| 2026-04-28 16:01 | 43.53805 | 16.30032 | 64 ft | 1 kts | 227° |
| 2026-04-28 16:02 | 43.53802 | 16.30015 | 64 ft | 4 kts | 256° |
| 2026-04-28 16:02 | 43.53803 | 16.29961 | 72 ft | 5 kts | 278° |
| 2026-04-28 16:02 | 43.53794 | 16.29918 | 71 ft | 5 kts | 245° |
| 2026-04-28 16:02 | 43.53779 | 16.29838 | 73 ft | 13 kts | 259° |
| 2026-04-28 16:03 | 43.53753 | 16.29721 | 86 ft | 8 kts | 240° |
| 2026-04-28 16:03 | 43.53728 | 16.29691 | 85 ft | 8 kts | 211° |
| 2026-04-28 16:03 | 43.53683 | 16.29681 | 85 ft | 2 kts | 159° |
| 2026-04-28 16:03 | 43.53663 | 16.29707 | 85 ft | 0 kts | 129° |
| 2026-04-28 16:04 | 43.53653 | 16.29725 | 83 ft | 0 kts | 137° |
| 2026-04-28 16:04 | 43.53638 | 16.29725 | 84 ft | 3 kts | 187° |
| 2026-04-28 16:04 | 43.53629 | 16.29710 | 82 ft | 3 kts | 236° |
| 2026-04-28 16:05 | 43.53652 | 16.29626 | 85 ft | 15 kts | 312° |
| 2026-04-28 16:05 | 43.53675 | 16.29422 | 85 ft | 29 kts | 241° |
| 2026-04-28 16:05 | 43.53536 | 16.29155 | 84 ft | 38 kts | 233° |
| 2026-04-28 16:05 | 43.53379 | 16.28855 | 87 ft | 37 kts | 233° |
| 2026-04-28 16:06 | 43.53297 | 16.28701 | 89 ft | 15 kts | 237° |
| 2026-04-28 16:06 | 43.53250 | 16.28600 | 92 ft | 4 kts | 227° |
| 2026-04-28 16:06 | 43.53243 | 16.28597 | 92 ft | 2 kts | 202° |
| 2026-04-28 16:06 | 43.53230 | 16.28604 | 92 ft | 2 kts | 153° |
| 2026-04-28 16:07 | 43.53225 | 16.28618 | 91 ft | 2 kts | 112° |
| 2026-04-28 16:07 | 43.53227 | 16.28632 | 90 ft | 1 kts | 77° |
| 2026-04-28 16:07 | 43.53248 | 16.28658 | 92 ft | 3 kts | 43° |
| 2026-04-28 16:08 | 43.53261 | 16.28673 | 89 ft | 2 kts | 43° |
| 2026-04-28 16:08 | 43.53276 | 16.28691 | 90 ft | 5 kts | 44° |
| 2026-04-28 16:08 | 43.53280 | 16.28699 | 90 ft | 0 kts | 53° |
| 2026-04-28 16:10 | 43.53281 | 16.28700 | 90 ft | 5 kts | 54° |
| 2026-04-28 16:10 | 43.53364 | 16.28856 | 88 ft | 55 kts | 48° |
| 2026-04-28 16:10 | 43.54383 | 16.30687 | 66 ft | 181 kts | 61° |
| 2026-04-28 16:11 | 43.55036 | 16.32298 | 85 ft | 0 kts | 297° |
| 2026-04-28 16:12 | 43.53834 | 16.30032 | 74 ft | 0 kts | 115° |
| 2026-04-28 16:24 | 43.53834 | 16.30033 | 66 ft | 0 kts | 118° |
| 2026-04-28 16:24 | 43.53830 | 16.30037 | 67 ft | 1 kts | 134° |
| 2026-04-28 16:24 | 43.53825 | 16.30039 | 66 ft | 1 kts | 152° |
| 2026-04-28 16:24 | 43.53821 | 16.30039 | 65 ft | 1 kts | 167° |
| 2026-04-28 16:25 | 43.53813 | 16.30036 | 71 ft | 1 kts | 194° |
| 2026-04-28 16:25 | 43.53807 | 16.30028 | 71 ft | 2 kts | 220° |
| 2026-04-28 16:25 | 43.53779 | 16.29972 | 65 ft | 15 kts | 243° |
| 2026-04-28 16:25 | 43.53716 | 16.29830 | 71 ft | 17 kts | 234° |
| 2026-04-28 16:26 | 43.53668 | 16.29739 | 85 ft | 4 kts | 239° |
| 2026-04-28 16:26 | 43.53664 | 16.29729 | 85 ft | 1 kts | 239° |
| 2026-04-28 16:26 | 43.53661 | 16.29721 | 84 ft | 0 kts | 247° |
| 2026-04-28 16:26 | 43.53660 | 16.29717 | 83 ft | 0 kts | 250° |
| 2026-04-28 16:27 | 43.53660 | 16.29714 | 83 ft | 0 kts | 251° |
| 2026-04-28 16:27 | 43.53659 | 16.29709 | 82 ft | 0 kts | 255° |
| 2026-04-28 16:27 | 43.53671 | 16.29688 | 84 ft | 3 kts | 325° |
| 2026-04-28 16:28 | 43.53689 | 16.29694 | 86 ft | 3 kts | 29° |
| 2026-04-28 16:28 | 43.53691 | 16.29721 | 85 ft | 3 kts | 101° |
| 2026-04-28 16:28 | 43.53671 | 16.29733 | 84 ft | 5 kts | 178° |
| 2026-04-28 16:28 | 43.53657 | 16.29731 | 86 ft | 6 kts | 186° |
| 2026-04-28 16:29 | 43.53642 | 16.29717 | 86 ft | 4 kts | 230° |
| 2026-04-28 16:29 | 43.53673 | 16.29421 | 85 ft | 24 kts | 246° |
| 2026-04-28 16:30 | 43.53521 | 16.29124 | 84 ft | 51 kts | 238° |
| 2026-04-28 16:30 | 43.53299 | 16.28694 | 89 ft | 41 kts | 248° |
| 2026-04-28 16:30 | 43.53247 | 16.28587 | 93 ft | 1 kts | 232° |
| 2026-04-28 16:30 | 43.53239 | 16.28583 | 92 ft | 2 kts | 201° |
| 2026-04-28 16:31 | 43.53221 | 16.28598 | 92 ft | 4 kts | 131° |
| 2026-04-28 16:31 | 43.53220 | 16.28632 | 90 ft | 4 kts | 78° |
| 2026-04-28 16:31 | 43.53233 | 16.28647 | 91 ft | 2 kts | 31° |
| 2026-04-28 16:31 | 43.53256 | 16.28666 | 91 ft | 2 kts | 38° |
| 2026-04-28 16:32 | 43.53259 | 16.28673 | 88 ft | 0 kts | 51° |
| 2026-04-28 16:32 | 43.53318 | 16.28768 | 91 ft | 43 kts | 48° |
| 2026-04-28 16:33 | 43.53655 | 16.29367 | 83 ft | 112 kts | 53° |
| 2026-04-28 16:33 | 43.54039 | 16.30041 | 66 ft | 152 kts | 51° |
| 2026-04-28 16:33 | 43.54893 | 16.31975 | 144 ft | 192 kts | 54° |
| 2026-04-28 16:33 | 43.55604 | 16.33533 | 448 ft | 192 kts | 54° |
| 2026-04-28 16:34 | 43.56218 | 16.35256 | 644 ft | 210 kts | 70° |
| 2026-04-28 16:34 | 43.56407 | 16.37320 | 902 ft | 225 kts | 96° |
| 2026-04-28 16:34 | 43.55845 | 16.39330 | 1359 ft | 232 kts | 125° |
| 2026-04-28 16:34 | 43.54584 | 16.40741 | 1837 ft | 238 kts | 154° |
| 2026-04-28 16:35 | 43.52899 | 16.41142 | 2002 ft | 262 kts | 183° |
| 2026-04-28 16:35 | 43.51067 | 16.40468 | 2188 ft | 283 kts | 202° |
| 2026-04-28 16:35 | 43.49564 | 16.38750 | 2814 ft | 283 kts | 238° |
| 2026-04-28 16:35 | 43.49217 | 16.36149 | 3371 ft | 290 kts | 277° |
| 2026-04-28 16:36 | 43.50070 | 16.33459 | 2688 ft | 340 kts | 303° |
| 2026-04-28 16:36 | 43.51928 | 16.31028 | 1890 ft | 394 kts | 323° |
| 2026-04-28 16:36 | 43.54526 | 16.29591 | 2377 ft | 404 kts | 342° |
| 2026-04-28 16:36 | 43.57166 | 16.28592 | 3917 ft | 385 kts | 342° |
| 2026-04-28 16:37 | 43.59778 | 16.28233 | 4739 ft | 367 kts | 357° |
| 2026-04-28 16:37 | 43.62233 | 16.28361 | 4922 ft | 345 kts | 1° |
| 2026-04-28 16:37 | 43.64569 | 16.28867 | 4869 ft | 332 kts | 6° |
| 2026-04-28 16:38 | 43.68942 | 16.29790 | 5010 ft | 318 kts | 0° |
| 2026-04-28 16:38 | 43.71178 | 16.29922 | 5196 ft | 319 kts | 355° |
| 2026-04-28 16:38 | 43.73435 | 16.29857 | 5365 ft | 338 kts | 354° |
| 2026-04-28 16:38 | 43.75858 | 16.29794 | 5613 ft | 356 kts | 355° |
| 2026-04-28 16:39 | 43.78390 | 16.29761 | 5911 ft | 372 kts | 355° |
| 2026-04-28 16:39 | 43.80988 | 16.29726 | 6204 ft | 374 kts | 355° |
| 2026-04-28 16:39 | 43.83599 | 16.29744 | 6463 ft | 375 kts | 356° |
| 2026-04-28 16:39 | 43.86209 | 16.29806 | 6759 ft | 375 kts | 356° |
| 2026-04-28 16:40 | 43.88820 | 16.29821 | 7043 ft | 375 kts | 355° |
| 2026-04-28 16:40 | 43.91428 | 16.29822 | 7315 ft | 375 kts | 356° |
| 2026-04-28 16:40 | 43.94033 | 16.29873 | 7581 ft | 374 kts | 356° |
| 2026-04-28 16:40 | 43.96636 | 16.29897 | 7856 ft | 373 kts | 356° |
| 2026-04-28 16:41 | 43.99242 | 16.29906 | 8128 ft | 373 kts | 356° |
| 2026-04-28 16:41 | 44.01809 | 16.29931 | 8382 ft | 374 kts | 356° |
| 2026-04-28 16:41 | 44.04407 | 16.29975 | 8662 ft | 373 kts | 356° |
| 2026-04-28 16:41 | 44.07005 | 16.29997 | 8935 ft | 372 kts | 356° |
| 2026-04-28 16:42 | 44.09603 | 16.30015 | 9209 ft | 372 kts | 356° |
| 2026-04-28 16:42 | 44.12193 | 16.30034 | 9483 ft | 372 kts | 356° |
| 2026-04-28 16:42 | 44.14782 | 16.30056 | 9757 ft | 372 kts | 356° |
| 2026-04-28 16:42 | 44.17360 | 16.30076 | 10030 ft | 371 kts | 356° |
| 2026-04-28 16:43 | 44.19947 | 16.30090 | 10302 ft | 370 kts | 356° |
| 2026-04-28 16:43 | 44.22491 | 16.30104 | 10584 ft | 370 kts | 356° |
| 2026-04-28 16:43 | 44.25068 | 16.30121 | 10860 ft | 370 kts | 356° |
| 2026-04-28 16:43 | 44.27643 | 16.30141 | 11133 ft | 370 kts | 356° |
| 2026-04-28 16:44 | 44.30218 | 16.30164 | 11421 ft | 369 kts | 356° |
| 2026-04-28 16:44 | 44.32789 | 16.30191 | 11683 ft | 369 kts | 356° |
| 2026-04-28 16:44 | 44.35359 | 16.30221 | 11964 ft | 368 kts | 356° |
| 2026-04-28 16:44 | 44.37921 | 16.30255 | 12242 ft | 368 kts | 356° |
| 2026-04-28 16:45 | 44.40482 | 16.30279 | 12545 ft | 368 kts | 356° |
| 2026-04-28 16:45 | 44.43042 | 16.30278 | 12825 ft | 367 kts | 355° |
| 2026-04-28 16:45 | 44.45564 | 16.30276 | 13103 ft | 367 kts | 356° |
| 2026-04-28 16:45 | 44.48116 | 16.30283 | 13383 ft | 366 kts | 356° |
| 2026-04-28 16:46 | 44.50665 | 16.30293 | 13669 ft | 366 kts | 356° |
| 2026-04-28 16:46 | 44.53213 | 16.30299 | 13954 ft | 366 kts | 356° |
| 2026-04-28 16:46 | 44.55760 | 16.30303 | 14241 ft | 365 kts | 356° |
| 2026-04-28 16:46 | 44.58303 | 16.30309 | 14527 ft | 365 kts | 356° |
| 2026-04-28 16:47 | 44.60850 | 16.30316 | 14812 ft | 365 kts | 356° |
| 2026-04-28 16:47 | 44.63386 | 16.30322 | 15096 ft | 364 kts | 356° |
| 2026-04-28 16:47 | 44.65892 | 16.30328 | 15386 ft | 364 kts | 356° |
| 2026-04-28 16:47 | 44.68424 | 16.30333 | 15683 ft | 363 kts | 356° |
| 2026-04-28 16:48 | 44.70958 | 16.30339 | 15969 ft | 363 kts | 356° |
| 2026-04-28 16:48 | 44.73485 | 16.30345 | 16260 ft | 363 kts | 356° |
| 2026-04-28 16:48 | 44.76011 | 16.30351 | 16550 ft | 362 kts | 356° |
| 2026-04-28 16:48 | 44.78530 | 16.30357 | 16839 ft | 362 kts | 356° |
| 2026-04-28 16:49 | 44.81046 | 16.30363 | 17130 ft | 361 kts | 356° |
| 2026-04-28 16:49 | 44.83566 | 16.30369 | 17437 ft | 361 kts | 356° |
| 2026-04-28 16:49 | 44.86051 | 16.30374 | 17721 ft | 361 kts | 356° |
| 2026-04-28 16:49 | 44.88563 | 16.30380 | 18000 ft | 360 kts | 356° |
| 2026-04-28 16:50 | 44.91077 | 16.30386 | 18307 ft | 360 kts | 356° |
| 2026-04-28 16:50 | 44.93560 | 16.30392 | 18598 ft | 359 kts | 356° |
| 2026-04-28 16:50 | 44.96058 | 16.30397 | 18892 ft | 359 kts | 356° |
| 2026-04-28 16:50 | 44.98570 | 16.30402 | 19201 ft | 363 kts | 356° |
| 2026-04-28 16:51 | 45.01112 | 16.30403 | 19510 ft | 367 kts | 356° |
| 2026-04-28 16:51 | 45.03653 | 16.30404 | 19820 ft | 372 kts | 356° |
| 2026-04-28 16:51 | 45.06289 | 16.30139 | 20042 ft | 379 kts | 355° |
| 2026-04-28 16:51 | 45.08922 | 16.29877 | 20194 ft | 391 kts | 358° |
| 2026-04-28 16:52 | 45.11714 | 16.29849 | 20106 ft | 410 kts | 0° |
| 2026-04-28 16:52 | 45.14581 | 16.29930 | 20607 ft | 411 kts | 358° |
| 2026-04-28 16:52 | 45.17474 | 16.30039 | 20822 ft | 420 kts | 358° |
| 2026-04-28 16:52 | 45.20425 | 16.30227 | 21042 ft | 427 kts | 358° |
| 2026-04-28 16:53 | 45.23421 | 16.30365 | 21305 ft | 433 kts | 357° |
| 2026-04-28 16:53 | 45.26450 | 16.30437 | 21567 ft | 438 kts | 356° |
| 2026-04-28 16:53 | 45.29515 | 16.30438 | 21832 ft | 443 kts | 355° |
| 2026-04-28 16:53 | 45.32615 | 16.30405 | 22089 ft | 448 kts | 355° |
| 2026-04-28 16:54 | 45.35747 | 16.30396 | 22344 ft | 453 kts | 356° |
| 2026-04-28 16:54 | 45.38917 | 16.30401 | 22587 ft | 458 kts | 356° |
| 2026-04-28 16:54 | 45.42123 | 16.30408 | 22838 ft | 462 kts | 356° |
| 2026-04-28 16:54 | 45.44256 | 16.30412 | 23003 ft | 465 kts | 356° |
| 2026-04-28 16:55 | 45.48576 | 16.30417 | 23340 ft | 470 kts | 356° |
| 2026-04-28 16:55 | 45.51867 | 16.30417 | 23580 ft | 474 kts | 356° |
| 2026-04-28 16:55 | 45.55185 | 16.30413 | 23824 ft | 478 kts | 356° |
| 2026-04-28 16:55 | 45.58520 | 16.30406 | 24063 ft | 481 kts | 355° |
| 2026-04-28 16:56 | 45.61891 | 16.30395 | 24296 ft | 485 kts | 355° |
| 2026-04-28 16:56 | 45.65270 | 16.30382 | 24542 ft | 488 kts | 355° |
| 2026-04-28 16:56 | 45.68685 | 16.30366 | 24786 ft | 491 kts | 355° |
| 2026-04-28 16:56 | 45.72116 | 16.30348 | 25003 ft | 494 kts | 355° |
| 2026-04-28 16:57 | 45.75517 | 16.30329 | 25239 ft | 496 kts | 355° |
| 2026-04-28 16:57 | 45.78986 | 16.30309 | 25468 ft | 499 kts | 355° |
| 2026-04-28 16:57 | 45.82468 | 16.30296 | 25693 ft | 501 kts | 356° |
| 2026-04-28 16:57 | 45.85967 | 16.30293 | 25921 ft | 503 kts | 356° |
| 2026-04-28 16:58 | 45.89481 | 16.30280 | 26165 ft | 505 kts | 354° |
| 2026-04-28 16:58 | 45.92986 | 16.29998 | 26463 ft | 505 kts | 352° |
| 2026-04-28 16:58 | 45.96509 | 16.29652 | 26700 ft | 507 kts | 352° |
| 2026-04-28 16:58 | 46.00037 | 16.29281 | 26926 ft | 508 kts | 352° |
| 2026-04-28 16:59 | 46.03576 | 16.28900 | 27156 ft | 510 kts | 351° |
| 2026-04-28 16:59 | 46.07075 | 16.28518 | 27384 ft | 511 kts | 351° |
| 2026-04-28 16:59 | 46.10635 | 16.28129 | 27603 ft | 513 kts | 351° |
| 2026-04-28 16:59 | 46.14211 | 16.27742 | 27823 ft | 514 kts | 352° |
| 2026-04-28 17:00 | 46.17786 | 16.27364 | 28040 ft | 514 kts | 352° |
| 2026-04-28 17:00 | 46.21359 | 16.26994 | 28263 ft | 514 kts | 352° |
| 2026-04-28 17:00 | 46.24931 | 16.26630 | 28480 ft | 514 kts | 352° |
| 2026-04-28 17:00 | 46.28497 | 16.26268 | 28712 ft | 513 kts | 352° |
| 2026-04-28 17:01 | 46.32062 | 16.25904 | 28930 ft | 513 kts | 352° |
| 2026-04-28 17:01 | 46.35578 | 16.25545 | 29151 ft | 512 kts | 352° |
| 2026-04-28 17:01 | 46.39135 | 16.25182 | 29374 ft | 512 kts | 352° |
| 2026-04-28 17:01 | 46.42685 | 16.24824 | 29598 ft | 512 kts | 352° |
| 2026-04-28 17:02 | 46.46240 | 16.24470 | 29821 ft | 511 kts | 352° |
| 2026-04-28 17:02 | 46.48593 | 16.24237 | 29974 ft | 511 kts | 352° |
| 2026-04-28 17:02 | 46.53341 | 16.23774 | 30279 ft | 510 kts | 352° |
| 2026-04-28 17:02 | 46.56880 | 16.23434 | 30500 ft | 510 kts | 352° |
| 2026-04-28 17:03 | 46.63957 | 16.22743 | 30978 ft | 509 kts | 352° |
| 2026-04-28 17:03 | 46.67482 | 16.22352 | 31216 ft | 508 kts | 351° |
| 2026-04-28 17:03 | 46.71018 | 16.21962 | 31451 ft | 507 kts | 352° |
| 2026-04-28 17:04 | 46.78015 | 16.21237 | 31903 ft | 507 kts | 352° |
| 2026-04-28 17:04 | 46.81530 | 16.20859 | 32150 ft | 506 kts | 352° |
| 2026-04-28 17:05 | 46.88559 | 16.20103 | 32616 ft | 505 kts | 352° |
| 2026-04-28 17:05 | 46.92061 | 16.19733 | 32859 ft | 504 kts | 352° |
| 2026-04-28 17:05 | 46.95558 | 16.19359 | 33100 ft | 503 kts | 352° |
| 2026-04-28 17:06 | 47.01374 | 16.18732 | 33498 ft | 502 kts | 352° |
| 2026-04-28 17:06 | 47.05997 | 16.18238 | 33820 ft | 500 kts | 352° |
| 2026-04-28 17:06 | 47.12929 | 16.17491 | 34300 ft | 497 kts | 352° |
| 2026-04-28 17:07 | 47.15215 | 16.17245 | 34466 ft | 496 kts | 352° |
| 2026-04-28 17:07 | 47.18649 | 16.16874 | 34701 ft | 495 kts | 352° |
| 2026-04-28 17:07 | 47.22083 | 16.16504 | 34951 ft | 493 kts | 352° |
| 2026-04-28 17:07 | 47.25490 | 16.16136 | 35190 ft | 490 kts | 352° |
| 2026-04-28 17:08 | 47.28886 | 16.15768 | 35433 ft | 488 kts | 352° |
| 2026-04-28 17:08 | 47.32274 | 16.15402 | 35675 ft | 485 kts | 352° |
| 2026-04-28 17:08 | 47.35627 | 16.15038 | 35919 ft | 481 kts | 352° |
| 2026-04-28 17:08 | 47.38955 | 16.14678 | 36157 ft | 478 kts | 352° |
| 2026-04-28 17:09 | 47.42262 | 16.14319 | 36393 ft | 474 kts | 352° |
| 2026-04-28 17:09 | 47.45532 | 16.13964 | 36636 ft | 470 kts | 352° |
| 2026-04-28 17:09 | 47.48786 | 16.13610 | 36873 ft | 465 kts | 352° |
| 2026-04-28 17:09 | 47.51959 | 16.13261 | 36977 ft | 464 kts | 352° |
| 2026-04-28 17:10 | 47.58312 | 16.11821 | 37043 ft | 463 kts | 342° |
| 2026-04-28 17:10 | 47.64588 | 16.09450 | 36984 ft | 466 kts | 341° |
| 2026-04-28 17:11 | 47.70893 | 16.07071 | 36986 ft | 469 kts | 342° |
| 2026-04-28 17:11 | 47.77228 | 16.04678 | 36987 ft | 472 kts | 341° |
| 2026-04-28 17:12 | 47.83615 | 16.02252 | 36987 ft | 475 kts | 342° |
| 2026-04-28 17:12 | 47.90051 | 15.99807 | 36988 ft | 479 kts | 342° |
| 2026-04-28 17:13 | 47.96536 | 15.97333 | 36986 ft | 483 kts | 342° |
| 2026-04-28 17:13 | 48.03023 | 15.94855 | 36986 ft | 486 kts | 341° |
| 2026-04-28 17:14 | 48.09619 | 15.92326 | 36985 ft | 490 kts | 341° |
| 2026-04-28 17:14 | 48.16256 | 15.89777 | 36984 ft | 494 kts | 341° |
| 2026-04-28 17:15 | 48.22919 | 15.87212 | 36982 ft | 494 kts | 341° |
| 2026-04-28 17:15 | 48.29593 | 15.84636 | 36978 ft | 494 kts | 341° |
| 2026-04-28 17:16 | 48.36256 | 15.82057 | 36979 ft | 494 kts | 341° |
| 2026-04-28 17:16 | 48.42925 | 15.79469 | 36979 ft | 494 kts | 341° |
| 2026-04-28 17:17 | 48.49541 | 15.76895 | 36979 ft | 494 kts | 341° |
| 2026-04-28 17:17 | 48.56207 | 15.74292 | 36981 ft | 495 kts | 341° |
| 2026-04-28 17:18 | 48.62870 | 15.71686 | 36979 ft | 495 kts | 341° |
| 2026-04-28 17:18 | 48.69545 | 15.69066 | 36979 ft | 495 kts | 341° |
| 2026-04-28 17:19 | 48.76222 | 15.66440 | 36981 ft | 494 kts | 341° |
| 2026-04-28 17:19 | 48.82844 | 15.63828 | 36978 ft | 494 kts | 341° |
| 2026-04-28 17:20 | 48.88419 | 15.61605 | 36989 ft | 493 kts | 338° |
| 2026-04-28 17:20 | 48.95869 | 15.57342 | 36982 ft | 492 kts | 335° |
| 2026-04-28 17:21 | 49.02285 | 15.53565 | 36977 ft | 493 kts | 335° |
| 2026-04-28 17:22 | 49.06277 | 15.51225 | 36981 ft | 494 kts | 335° |
| 2026-04-28 17:22 | 49.09685 | 15.49215 | 36978 ft | 494 kts | 335° |
| 2026-04-28 17:23 | 49.19300 | 15.43536 | 36980 ft | 493 kts | 335° |
| 2026-04-28 17:23 | 49.25700 | 15.39741 | 36975 ft | 493 kts | 335° |
| 2026-04-28 17:24 | 49.32112 | 15.35931 | 36977 ft | 494 kts | 335° |
| 2026-04-28 17:24 | 49.38487 | 15.32129 | 36980 ft | 494 kts | 335° |
| 2026-04-28 17:25 | 49.48113 | 15.26372 | 36979 ft | 495 kts | 335° |
| 2026-04-28 17:26 | 49.54535 | 15.22516 | 36980 ft | 495 kts | 335° |
| 2026-04-28 17:26 | 49.60946 | 15.18657 | 36979 ft | 494 kts | 335° |
| 2026-04-28 17:27 | 49.67353 | 15.14789 | 36975 ft | 494 kts | 334° |
| 2026-04-28 17:27 | 49.73720 | 15.10935 | 36977 ft | 494 kts | 334° |
| 2026-04-28 17:28 | 49.80121 | 15.07049 | 36977 ft | 493 kts | 334° |
| 2026-04-28 17:28 | 49.89716 | 15.01202 | 36978 ft | 494 kts | 334° |
| 2026-04-28 17:29 | 49.96110 | 14.97293 | 36978 ft | 494 kts | 334° |
| 2026-04-28 17:30 | 50.05701 | 14.91407 | 36978 ft | 494 kts | 334° |
| 2026-04-28 17:30 | 50.15282 | 14.85502 | 36978 ft | 493 kts | 334° |
| 2026-04-28 17:31 | 50.24831 | 14.79592 | 36978 ft | 493 kts | 334° |
| 2026-04-28 17:32 | 50.34400 | 14.73643 | 36980 ft | 494 kts | 334° |
| 2026-04-28 17:32 | 50.40761 | 14.69673 | 36981 ft | 495 kts | 334° |
| 2026-04-28 17:33 | 50.47170 | 14.65664 | 36979 ft | 495 kts | 334° |
| 2026-04-28 17:33 | 50.52486 | 14.62328 | 36981 ft | 495 kts | 334° |
| 2026-04-28 17:34 | 50.59964 | 14.57623 | 36978 ft | 495 kts | 334° |
| 2026-04-28 17:34 | 50.66355 | 14.53588 | 36978 ft | 495 kts | 334° |
| 2026-04-28 17:35 | 50.72717 | 14.49560 | 36979 ft | 495 kts | 334° |
| 2026-04-28 17:35 | 50.79113 | 14.45499 | 36978 ft | 495 kts | 334° |
| 2026-04-28 17:36 | 50.85508 | 14.41427 | 36981 ft | 495 kts | 334° |
| 2026-04-28 17:36 | 50.91906 | 14.37395 | 36936 ft | 494 kts | 339° |
| 2026-04-28 17:37 | 50.98630 | 14.35245 | 36876 ft | 494 kts | 349° |
| 2026-04-28 17:37 | 51.05478 | 14.34145 | 36981 ft | 494 kts | 351° |
| 2026-04-28 17:38 | 51.12326 | 14.33002 | 36989 ft | 494 kts | 348° |
| 2026-04-28 17:38 | 51.19151 | 14.31526 | 36971 ft | 494 kts | 349° |
| 2026-04-28 17:39 | 51.25996 | 14.30240 | 36986 ft | 494 kts | 349° |
| 2026-04-28 17:40 | 51.36205 | 14.28171 | 36979 ft | 495 kts | 349° |
| 2026-04-28 17:40 | 51.43035 | 14.26816 | 36980 ft | 495 kts | 349° |
| 2026-04-28 17:41 | 51.49880 | 14.25433 | 36977 ft | 495 kts | 349° |
| 2026-04-28 17:41 | 51.56718 | 14.24063 | 36979 ft | 495 kts | 349° |
| 2026-04-28 17:42 | 51.63558 | 14.22678 | 36982 ft | 495 kts | 349° |
| 2026-04-28 17:42 | 51.70407 | 14.21293 | 36978 ft | 495 kts | 349° |
| 2026-04-28 17:43 | 51.77243 | 14.19903 | 36980 ft | 495 kts | 349° |
| 2026-04-28 17:43 | 51.84078 | 14.18511 | 36979 ft | 495 kts | 349° |
| 2026-04-28 17:44 | 51.90863 | 14.17124 | 36978 ft | 495 kts | 349° |
| 2026-04-28 17:44 | 51.97690 | 14.15724 | 36979 ft | 495 kts | 349° |
| 2026-04-28 17:45 | 52.04522 | 14.14319 | 36981 ft | 494 kts | 349° |
| 2026-04-28 17:45 | 52.11351 | 14.12911 | 36978 ft | 494 kts | 349° |
| 2026-04-28 17:46 | 52.18181 | 14.11497 | 36977 ft | 495 kts | 349° |
| 2026-04-28 17:46 | 52.25031 | 14.10074 | 36982 ft | 495 kts | 349° |
| 2026-04-28 17:47 | 52.31880 | 14.08649 | 36978 ft | 495 kts | 349° |
| 2026-04-28 17:47 | 52.38680 | 14.07228 | 36978 ft | 495 kts | 349° |
| 2026-04-28 17:48 | 52.45518 | 14.05796 | 36980 ft | 495 kts | 349° |
| 2026-04-28 17:48 | 52.51252 | 14.04591 | 36979 ft | 495 kts | 349° |
| 2026-04-28 17:49 | 52.58048 | 14.03159 | 36979 ft | 495 kts | 348° |
| 2026-04-28 17:49 | 52.61427 | 14.02145 | 37126 ft | 491 kts | 341° |
| 2026-04-28 17:49 | 52.64742 | 14.00649 | 36987 ft | 493 kts | 340° |
| 2026-04-28 17:50 | 52.71351 | 13.97584 | 36985 ft | 494 kts | 340° |
| 2026-04-28 17:50 | 52.77942 | 13.94555 | 36983 ft | 494 kts | 340° |
| 2026-04-28 17:51 | 52.84568 | 13.91483 | 36981 ft | 494 kts | 340° |
| 2026-04-28 17:51 | 52.91196 | 13.88407 | 36981 ft | 494 kts | 340° |
| 2026-04-28 17:52 | 52.97811 | 13.85326 | 36981 ft | 493 kts | 340° |
| 2026-04-28 17:52 | 53.07755 | 13.80676 | 36982 ft | 495 kts | 340° |
| 2026-04-28 17:53 | 53.14351 | 13.77579 | 36982 ft | 495 kts | 340° |
| 2026-04-28 17:53 | 53.20987 | 13.74454 | 36978 ft | 495 kts | 340° |
| 2026-04-28 17:54 | 53.27621 | 13.71319 | 36978 ft | 494 kts | 340° |
| 2026-04-28 17:54 | 53.34243 | 13.68180 | 36978 ft | 494 kts | 340° |
| 2026-04-28 17:55 | 53.40871 | 13.65028 | 36978 ft | 494 kts | 340° |
| 2026-04-28 17:55 | 53.47487 | 13.61871 | 36978 ft | 494 kts | 340° |
| 2026-04-28 17:56 | 53.54065 | 13.58723 | 36977 ft | 494 kts | 340° |
| 2026-04-28 17:56 | 53.60685 | 13.55543 | 36979 ft | 495 kts | 340° |
| 2026-04-28 17:57 | 53.67319 | 13.52347 | 36980 ft | 495 kts | 340° |
| 2026-04-28 17:57 | 53.73951 | 13.49141 | 36979 ft | 495 kts | 340° |
| 2026-04-28 17:58 | 53.80566 | 13.45933 | 36981 ft | 495 kts | 340° |
| 2026-04-28 17:58 | 53.87148 | 13.42731 | 36979 ft | 494 kts | 340° |
| 2026-04-28 17:59 | 53.93766 | 13.39501 | 36978 ft | 494 kts | 340° |
| 2026-04-28 17:59 | 54.00383 | 13.36260 | 36981 ft | 494 kts | 340° |
| 2026-04-28 18:00 | 54.06998 | 13.33009 | 36976 ft | 494 kts | 340° |
| 2026-04-28 18:00 | 54.13608 | 13.29750 | 36978 ft | 494 kts | 340° |
| 2026-04-28 18:01 | 54.20224 | 13.26478 | 36982 ft | 494 kts | 340° |
| 2026-04-28 18:01 | 54.26800 | 13.23213 | 36950 ft | 495 kts | 339° |
| 2026-04-28 18:02 | 54.30120 | 13.21549 | 36521 ft | 497 kts | 340° |
| 2026-04-28 18:02 | 54.33428 | 13.19906 | 36105 ft | 493 kts | 340° |
| 2026-04-28 18:02 | 54.36708 | 13.18278 | 35701 ft | 489 kts | 340° |
| 2026-04-28 18:02 | 54.39983 | 13.16637 | 35300 ft | 489 kts | 340° |
| 2026-04-28 18:03 | 54.43267 | 13.14978 | 34903 ft | 493 kts | 340° |
| 2026-04-28 18:03 | 54.46562 | 13.13320 | 34505 ft | 493 kts | 340° |
| 2026-04-28 18:03 | 54.49862 | 13.11624 | 34123 ft | 494 kts | 339° |
| 2026-04-28 18:03 | 54.53153 | 13.09866 | 33730 ft | 495 kts | 339° |
| 2026-04-28 18:04 | 54.56454 | 13.08110 | 33330 ft | 496 kts | 339° |
| 2026-04-28 18:04 | 54.59721 | 13.06410 | 32933 ft | 497 kts | 339° |
| 2026-04-28 18:04 | 54.63037 | 13.04682 | 32532 ft | 498 kts | 339° |
| 2026-04-28 18:04 | 54.66360 | 13.02922 | 32137 ft | 499 kts | 339° |
| 2026-04-28 18:05 | 54.69685 | 13.01150 | 31734 ft | 502 kts | 339° |
| 2026-04-28 18:05 | 54.71942 | 12.99955 | 31452 ft | 501 kts | 339° |
| 2026-04-28 18:05 | 54.76335 | 12.97650 | 30996 ft | 494 kts | 339° |
| 2026-04-28 18:05 | 54.79610 | 12.95930 | 30983 ft | 491 kts | 339° |
| 2026-04-28 18:06 | 54.86182 | 12.92401 | 30973 ft | 495 kts | 339° |
| 2026-04-28 18:06 | 54.92793 | 12.88898 | 30973 ft | 495 kts | 339° |
| 2026-04-28 18:07 | 54.99380 | 12.85361 | 30971 ft | 495 kts | 339° |
| 2026-04-28 18:07 | 55.05971 | 12.81830 | 30971 ft | 495 kts | 339° |
| 2026-04-28 18:08 | 55.12520 | 12.78299 | 30970 ft | 495 kts | 339° |
| 2026-04-28 18:08 | 55.19103 | 12.74741 | 30971 ft | 495 kts | 339° |
| 2026-04-28 18:09 | 55.25699 | 12.71163 | 30970 ft | 495 kts | 339° |
| 2026-04-28 18:09 | 55.32283 | 12.67579 | 30970 ft | 495 kts | 339° |
| 2026-04-28 18:10 | 55.38865 | 12.63985 | 30971 ft | 495 kts | 339° |
| 2026-04-28 18:10 | 55.45439 | 12.60381 | 30970 ft | 495 kts | 339° |
| 2026-04-28 18:11 | 55.52024 | 12.56759 | 30970 ft | 495 kts | 339° |
| 2026-04-28 18:11 | 55.58609 | 12.53124 | 30971 ft | 495 kts | 339° |
| 2026-04-28 18:12 | 55.65148 | 12.49502 | 30970 ft | 495 kts | 338° |
| 2026-04-28 18:12 | 55.71718 | 12.45850 | 30970 ft | 495 kts | 338° |
| 2026-04-28 18:13 | 55.78305 | 12.42176 | 30971 ft | 495 kts | 338° |
| 2026-04-28 18:13 | 55.84891 | 12.38489 | 30970 ft | 495 kts | 338° |
| 2026-04-28 18:14 | 55.91458 | 12.34799 | 30971 ft | 495 kts | 338° |
| 2026-04-28 18:14 | 55.98038 | 12.31089 | 30971 ft | 495 kts | 338° |
| 2026-04-28 18:15 | 56.04561 | 12.27399 | 30970 ft | 495 kts | 338° |
| 2026-04-28 18:15 | 56.11122 | 12.23610 | 31019 ft | 495 kts | 334° |
| 2026-04-28 18:16 | 56.17544 | 12.19156 | 30971 ft | 496 kts | 335° |
| 2026-04-28 18:16 | 56.20754 | 12.16890 | 30834 ft | 495 kts | 332° |
| 2026-04-28 18:16 | 56.23838 | 12.14171 | 30805 ft | 493 kts | 327° |
| 2026-04-28 18:17 | 56.29621 | 12.07524 | 30641 ft | 493 kts | 319° |
| 2026-04-28 18:17 | 56.34564 | 11.99039 | 30595 ft | 492 kts | 306° |
| 2026-04-28 18:18 | 56.36762 | 11.94317 | 30421 ft | 493 kts | 309° |
| 2026-04-28 18:18 | 56.39241 | 11.90040 | 30074 ft | 490 kts | 317° |
| 2026-04-28 18:18 | 56.42009 | 11.86534 | 29871 ft | 482 kts | 327° |
| 2026-04-28 18:18 | 56.43982 | 11.84664 | 29811 ft | 484 kts | 332° |
| 2026-04-28 18:19 | 56.48249 | 11.81983 | 29707 ft | 486 kts | 343° |
| 2026-04-28 18:19 | 56.51584 | 11.80998 | 29617 ft | 486 kts | 352° |
| 2026-04-28 18:19 | 56.58306 | 11.81733 | 29438 ft | 485 kts | 9° |
| 2026-04-28 18:20 | 56.64677 | 11.85484 | 29368 ft | 484 kts | 18° |
| 2026-04-28 18:20 | 56.70888 | 11.90272 | 29429 ft | 485 kts | 20° |
| 2026-04-28 18:21 | 56.77059 | 11.95288 | 29516 ft | 485 kts | 20° |
| 2026-04-28 18:21 | 56.83228 | 12.00371 | 29610 ft | 486 kts | 20° |
| 2026-04-28 18:22 | 56.86399 | 12.02413 | 29936 ft | 481 kts | 6° |
| 2026-04-28 18:22 | 56.89739 | 12.03154 | 30069 ft | 485 kts | 358° |
| 2026-04-28 18:22 | 56.96476 | 12.02910 | 31225 ft | 487 kts | 352° |
| 2026-04-28 18:23 | 56.99861 | 12.02452 | 31037 ft | 475 kts | 351° |
| 2026-04-28 18:23 | 57.03078 | 12.01959 | 30849 ft | 469 kts | 351° |
| 2026-04-28 18:23 | 57.06332 | 12.01425 | 30661 ft | 467 kts | 351° |
| 2026-04-28 18:23 | 57.09537 | 12.00889 | 30432 ft | 458 kts | 351° |
| 2026-04-28 18:24 | 57.13771 | 12.00189 | 30382 ft | 455 kts | 351° |
| 2026-04-28 18:24 | 57.22221 | 11.98761 | 30389 ft | 458 kts | 351° |
| 2026-04-28 18:25 | 57.28534 | 11.97688 | 30385 ft | 458 kts | 351° |
| 2026-04-28 18:26 | 57.37014 | 11.96248 | 30385 ft | 456 kts | 351° |
| 2026-04-28 18:26 | 57.43349 | 11.95174 | 30377 ft | 456 kts | 351° |
| 2026-04-28 18:27 | 57.49636 | 11.94110 | 30374 ft | 456 kts | 351° |
| 2026-04-28 18:27 | 57.55945 | 11.93048 | 30366 ft | 455 kts | 351° |
| 2026-04-28 18:28 | 57.62260 | 11.91989 | 30372 ft | 455 kts | 351° |
| 2026-04-28 18:28 | 57.68568 | 11.90940 | 30372 ft | 455 kts | 351° |
| 2026-04-28 18:29 | 57.74879 | 11.89904 | 30371 ft | 454 kts | 350° |
| 2026-04-28 18:29 | 57.81177 | 11.88881 | 30372 ft | 454 kts | 351° |
| 2026-04-28 18:30 | 57.87473 | 11.87872 | 30371 ft | 453 kts | 351° |
| 2026-04-28 18:30 | 57.93765 | 11.86875 | 30377 ft | 453 kts | 350° |
| 2026-04-28 18:31 | 58.00044 | 11.85893 | 30381 ft | 452 kts | 350° |
| 2026-04-28 18:31 | 58.06314 | 11.84927 | 30375 ft | 451 kts | 351° |
| 2026-04-28 18:32 | 58.12567 | 11.83969 | 30389 ft | 457 kts | 350° |
| 2026-04-28 18:32 | 58.18957 | 11.82971 | 30380 ft | 463 kts | 350° |
| 2026-04-28 18:33 | 58.25265 | 11.80845 | 30576 ft | 460 kts | 335° |
| 2026-04-28 18:33 | 58.31056 | 11.75753 | 30396 ft | 460 kts | 328° |
| 2026-04-28 18:34 | 58.36703 | 11.69833 | 30380 ft | 460 kts | 327° |
| 2026-04-28 18:34 | 58.42225 | 11.63816 | 30377 ft | 460 kts | 326° |
| 2026-04-28 18:35 | 58.47778 | 11.57702 | 30381 ft | 459 kts | 326° |
| 2026-04-28 18:35 | 58.53298 | 11.51551 | 30318 ft | 452 kts | 329° |
| 2026-04-28 18:35 | 58.55901 | 11.48358 | 30386 ft | 436 kts | 327° |
| 2026-04-28 18:36 | 58.58397 | 11.45134 | 30388 ft | 431 kts | 327° |
| 2026-04-28 18:36 | 58.63339 | 11.38554 | 30382 ft | 436 kts | 326° |
| 2026-04-28 18:37 | 58.68316 | 11.31836 | 30386 ft | 437 kts | 326° |
| 2026-04-28 18:37 | 58.73292 | 11.25098 | 30367 ft | 437 kts | 326° |
| 2026-04-28 18:38 | 58.78266 | 11.18353 | 30382 ft | 436 kts | 326° |
| 2026-04-28 18:38 | 58.83234 | 11.11605 | 30379 ft | 437 kts | 326° |
| 2026-04-28 18:39 | 58.88207 | 11.04845 | 30378 ft | 436 kts | 326° |
| 2026-04-28 18:39 | 58.93177 | 10.98082 | 30381 ft | 436 kts | 326° |
| 2026-04-28 18:40 | 58.98140 | 10.91322 | 30402 ft | 436 kts | 326° |
| 2026-04-28 18:40 | 59.02990 | 10.84301 | 30425 ft | 438 kts | 323° |
| 2026-04-28 18:41 | 59.08006 | 10.77778 | 30293 ft | 430 kts | 332° |
| 2026-04-28 18:41 | 59.13374 | 10.72694 | 30329 ft | 428 kts | 335° |
| 2026-04-28 18:42 | 59.18758 | 10.67681 | 30473 ft | 429 kts | 334° |
| 2026-04-28 18:42 | 59.24106 | 10.62445 | 30471 ft | 430 kts | 333° |
| 2026-04-28 18:43 | 59.29443 | 10.57139 | 30463 ft | 430 kts | 333° |
| 2026-04-28 18:43 | 59.34753 | 10.51742 | 30365 ft | 430 kts | 332° |
| 2026-04-28 18:44 | 59.40068 | 10.46354 | 30349 ft | 430 kts | 332° |
| 2026-04-28 18:44 | 59.48011 | 10.38248 | 30374 ft | 430 kts | 332° |
| 2026-04-28 18:45 | 59.53334 | 10.32799 | 30361 ft | 431 kts | 332° |
| 2026-04-28 18:45 | 59.58646 | 10.27334 | 30345 ft | 430 kts | 332° |
| 2026-04-28 18:46 | 59.63957 | 10.21856 | 30350 ft | 430 kts | 332° |
| 2026-04-28 18:46 | 59.69263 | 10.16360 | 30346 ft | 430 kts | 332° |
| 2026-04-28 18:47 | 59.74542 | 10.10874 | 30341 ft | 431 kts | 332° |
| 2026-04-28 18:47 | 59.79857 | 10.05329 | 30339 ft | 431 kts | 332° |
| 2026-04-28 18:48 | 59.85164 | 9.99773 | 30333 ft | 431 kts | 332° |
| 2026-04-28 18:48 | 59.90476 | 9.94192 | 30334 ft | 431 kts | 332° |
| 2026-04-28 18:49 | 59.93991 | 9.90487 | 30333 ft | 431 kts | 331° |
| 2026-04-28 18:49 | 60.01072 | 9.82998 | 30331 ft | 431 kts | 331° |
| 2026-04-28 18:50 | 60.06383 | 9.77357 | 30336 ft | 432 kts | 331° |
| 2026-04-28 18:50 | 60.11691 | 9.71697 | 30334 ft | 432 kts | 331° |
| 2026-04-28 18:51 | 60.16976 | 9.66041 | 30340 ft | 433 kts | 331° |
| 2026-04-28 18:51 | 60.22299 | 9.60325 | 30345 ft | 433 kts | 331° |
| 2026-04-28 18:52 | 60.27617 | 9.54590 | 30342 ft | 434 kts | 331° |
| 2026-04-28 18:52 | 60.32940 | 9.48831 | 30347 ft | 434 kts | 330° |
| 2026-04-28 18:53 | 60.38275 | 9.43037 | 30351 ft | 434 kts | 330° |
| 2026-04-28 18:53 | 60.43604 | 9.37228 | 30354 ft | 434 kts | 330° |
| 2026-04-28 18:54 | 60.48907 | 9.31425 | 30358 ft | 435 kts | 330° |
| 2026-04-28 18:54 | 60.54238 | 9.25569 | 30366 ft | 435 kts | 330° |
| 2026-04-28 18:55 | 60.58667 | 9.20687 | 30370 ft | 435 kts | 330° |
| 2026-04-28 18:55 | 60.64864 | 9.13831 | 30365 ft | 435 kts | 330° |
| 2026-04-28 18:56 | 60.70191 | 9.07913 | 30367 ft | 436 kts | 330° |
| 2026-04-28 18:56 | 60.75514 | 9.01978 | 30369 ft | 435 kts | 330° |
| 2026-04-28 18:57 | 60.80826 | 8.96031 | 30372 ft | 435 kts | 330° |
| 2026-04-28 18:57 | 60.86134 | 8.90066 | 30375 ft | 435 kts | 330° |
| 2026-04-28 18:58 | 60.91437 | 8.84085 | 30372 ft | 434 kts | 330° |
| 2026-04-28 18:58 | 60.96732 | 8.78089 | 30377 ft | 434 kts | 330° |
| 2026-04-28 18:59 | 61.02004 | 8.72097 | 30375 ft | 434 kts | 330° |
| 2026-04-28 18:59 | 61.07306 | 8.66045 | 30376 ft | 434 kts | 330° |
| 2026-04-28 19:00 | 61.12593 | 8.59993 | 30386 ft | 434 kts | 330° |
| 2026-04-28 19:00 | 61.17868 | 8.53926 | 30398 ft | 434 kts | 330° |
| 2026-04-28 19:01 | 61.23142 | 8.47838 | 30393 ft | 434 kts | 330° |
| 2026-04-28 19:01 | 61.25783 | 8.44784 | 30641 ft | 435 kts | 328° |
| 2026-04-28 19:01 | 61.28412 | 8.41737 | 30409 ft | 437 kts | 329° |
| 2026-04-28 19:02 | 61.33750 | 8.35521 | 30407 ft | 439 kts | 329° |
| 2026-04-28 19:02 | 61.39080 | 8.29296 | 30406 ft | 439 kts | 329° |
| 2026-04-28 19:03 | 61.44412 | 8.23044 | 30415 ft | 440 kts | 329° |
| 2026-04-28 19:03 | 61.48854 | 8.17816 | 30412 ft | 440 kts | 329° |
| 2026-04-28 19:04 | 61.54185 | 8.11521 | 30419 ft | 439 kts | 329° |
| 2026-04-28 19:04 | 61.59508 | 8.05210 | 30423 ft | 439 kts | 329° |
| 2026-04-28 19:05 | 61.64766 | 7.98817 | 30508 ft | 440 kts | 324° |
| 2026-04-28 19:05 | 61.69521 | 7.90513 | 30155 ft | 444 kts | 318° |
| 2026-04-28 19:06 | 61.71844 | 7.86257 | 29841 ft | 439 kts | 319° |
| 2026-04-28 19:06 | 61.74153 | 7.82035 | 29546 ft | 438 kts | 318° |
| 2026-04-28 19:06 | 61.76443 | 7.77815 | 29256 ft | 436 kts | 318° |
| 2026-04-28 19:06 | 61.78719 | 7.73589 | 28972 ft | 435 kts | 318° |
| 2026-04-28 19:07 | 61.80984 | 7.69380 | 28683 ft | 433 kts | 318° |
| 2026-04-28 19:07 | 61.83246 | 7.65185 | 28395 ft | 431 kts | 318° |
| 2026-04-28 19:07 | 61.85495 | 7.61004 | 28115 ft | 429 kts | 318° |
| 2026-04-28 19:07 | 61.87701 | 7.56882 | 27798 ft | 428 kts | 318° |
| 2026-04-28 19:08 | 61.89936 | 7.52698 | 27430 ft | 426 kts | 318° |
| 2026-04-28 19:08 | 61.92156 | 7.48548 | 27103 ft | 423 kts | 317° |
| 2026-04-28 19:08 | 61.94365 | 7.44405 | 26744 ft | 421 kts | 317° |
| 2026-04-28 19:08 | 61.96554 | 7.40286 | 26410 ft | 419 kts | 317° |
| 2026-04-28 19:09 | 61.98706 | 7.36228 | 26076 ft | 418 kts | 317° |
| 2026-04-28 19:09 | 62.00795 | 7.31942 | 25864 ft | 417 kts | 310° |
| 2026-04-28 19:09 | 62.02644 | 7.27108 | 25616 ft | 423 kts | 308° |
| 2026-04-28 19:09 | 62.04478 | 7.22242 | 25280 ft | 417 kts | 308° |
| 2026-04-28 19:10 | 62.06286 | 7.17454 | 24954 ft | 414 kts | 308° |
| 2026-04-28 19:10 | 62.08097 | 7.12657 | 24635 ft | 414 kts | 308° |
| 2026-04-28 19:10 | 62.09899 | 7.07871 | 24312 ft | 413 kts | 308° |
| 2026-04-28 19:10 | 62.11700 | 7.03076 | 24008 ft | 411 kts | 308° |
| 2026-04-28 19:11 | 62.13491 | 6.98324 | 23614 ft | 409 kts | 310° |
| 2026-04-28 19:11 | 62.15423 | 6.94010 | 23158 ft | 404 kts | 314° |
| 2026-04-28 19:11 | 62.17404 | 6.89801 | 22743 ft | 400 kts | 314° |
| 2026-04-28 19:11 | 62.19384 | 6.85611 | 22253 ft | 399 kts | 314° |
| 2026-04-28 19:12 | 62.21354 | 6.81441 | 21728 ft | 396 kts | 314° |
| 2026-04-28 19:12 | 62.23317 | 6.77268 | 21035 ft | 397 kts | 314° |
| 2026-04-28 19:12 | 62.25276 | 6.73086 | 20384 ft | 395 kts | 314° |
| 2026-04-28 19:12 | 62.27219 | 6.68927 | 19729 ft | 393 kts | 314° |
| 2026-04-28 19:13 | 62.29289 | 6.65200 | 18966 ft | 393 kts | 323° |
| 2026-04-28 19:13 | 62.31650 | 6.62232 | 18132 ft | 393 kts | 332° |
| 2026-04-28 19:13 | 62.34199 | 6.60138 | 17294 ft | 393 kts | 340° |
| 2026-04-28 19:13 | 62.36886 | 6.58948 | 16465 ft | 395 kts | 349° |
| 2026-04-28 19:14 | 62.39643 | 6.58663 | 15536 ft | 399 kts | 356° |
| 2026-04-28 19:14 | 62.42436 | 6.59234 | 14471 ft | 408 kts | 4° |
| 2026-04-28 19:14 | 62.45190 | 6.60643 | 13326 ft | 415 kts | 11° |
| 2026-04-28 19:14 | 62.47953 | 6.62486 | 12419 ft | 415 kts | 7° |
| 2026-04-28 19:15 | 62.50808 | 6.63015 | 11748 ft | 407 kts | 349° |
| 2026-04-28 19:15 | 62.53488 | 6.61371 | 11142 ft | 399 kts | 329° |
| 2026-04-28 19:15 | 62.55672 | 6.57775 | 10545 ft | 394 kts | 308° |
| 2026-04-28 19:15 | 62.56707 | 6.54548 | 10072 ft | 394 kts | 295° |
| 2026-04-28 19:16 | 62.57530 | 6.46840 | 8963 ft | 398 kts | 265° |
| 2026-04-28 19:16 | 62.57156 | 6.40869 | 7995 ft | 403 kts | 255° |
| 2026-04-28 19:16 | 62.56564 | 6.34933 | 7246 ft | 401 kts | 257° |
| 2026-04-28 19:16 | 62.56236 | 6.29053 | 7128 ft | 381 kts | 261° |
| 2026-04-28 19:17 | 62.55788 | 6.23719 | 7235 ft | 357 kts | 255° |
| 2026-04-28 19:17 | 62.55502 | 6.18685 | 6488 ft | 331 kts | 266° |
| 2026-04-28 19:17 | 62.55853 | 6.13781 | 4719 ft | 331 kts | 282° |
| 2026-04-28 19:17 | 62.56532 | 6.09360 | 4677 ft | 280 kts | 283° |
| 2026-04-28 19:18 | 62.57040 | 6.05586 | 5425 ft | 240 kts | 279° |
| 2026-04-28 19:18 | 62.57371 | 6.02240 | 5674 ft | 225 kts | 278° |
| 2026-04-28 19:18 | 62.57604 | 5.98787 | 5021 ft | 240 kts | 266° |
| 2026-04-28 19:18 | 62.57195 | 5.95140 | 3935 ft | 253 kts | 232° |
| 2026-04-28 19:19 | 62.55645 | 5.94463 | 2318 ft | 268 kts | 142° |
| 2026-04-28 19:19 | 62.54689 | 5.97942 | 1453 ft | 259 kts | 105° |
| 2026-04-28 19:19 | 62.54357 | 6.01662 | 1799 ft | 245 kts | 81° |
| 2026-04-28 19:19 | 62.54838 | 6.05219 | 1385 ft | 259 kts | 62° |
| 2026-04-28 19:20 | 62.55597 | 6.08753 | 611 ft | 267 kts | 60° |
| 2026-04-28 19:20 | 62.56287 | 6.12286 | 262 ft | 218 kts | 62° |
| 2026-04-28 19:20 | 62.56781 | 6.15212 | 374 ft | 199 kts | 69° |
| 2026-04-28 19:20 | 62.57018 | 6.17875 | 582 ft | 166 kts | 76° |
| 2026-04-28 19:21 | 62.57314 | 6.20428 | 318 ft | 192 kts | 69° |
| 2026-04-28 19:21 | 62.57663 | 6.23122 | 158 ft | 180 kts | 75° |
| 2026-04-28 19:21 | 62.57760 | 6.24009 | 110 ft | 178 kts | 72° |
| 2026-04-28 19:21 | 62.58108 | 6.25912 | 40 ft | 137 kts | 62° |
| 2026-04-28 19:22 | 62.58275 | 6.26489 | 39 ft | 0 kts | 214° |